Rennox, NV

11:00 PM PST on February 25, 2017 (GMT -0800)
Center of Battle Mountain | | Change Station
Active Advisory: Flood Warning

Elev 4523 ft 40.64 °N, 116.94 °W | Updated 53 seconds ago

Clear
Clear
23.5 °F
Feels Like 24 °F
N
0.0
Wind Variable Wind from ESE
Gusts 0.0 mph

Today
High -- | Low -- °F
--% Chance of Precip.
Yesterday
High -- | Low -- °F
Precip. -- in
Pressure 30.05 in
Visibility 10.0 miles
Clouds Clear
Windchill 24 °F
Dew Point 18 °F
Humidity 79%
Rainfall 0.00 in
Snow Depth Not available.
6:26 AM 5:34 PM
Waning Crescent, 0% visible
METAR KEKO 260656Z AUTO 00000KT 10SM CLR M06/M10 A2996 RMK AO2 SLP176 T10611100
Pressure 30.05 in
Visibility 10.0 miles
Clouds Clear
Windchill 24 °F
Dew Point 18 °F
Humidity 79%
Rainfall 0.00 in
Snow Depth Not available.
6:26 AM 5:34 PM
Waning Crescent, 0% visible
METAR KEKO 260656Z AUTO 00000KT 10SM CLR M06/M10 A2996 RMK AO2 SLP176 T10611100

Get Your Daily Forecast Email!

Thanks for signing up!

Be on the lookout for a verification email in your inbox.

You'll start receiving the daily forecast at 8 AM.

×

10-Day Weather Forecast

Almanac

Astronomy

Feb. 25, 2017 Rise Set
Actual Time
Civil Twilight
Nautical Twilight
Astronomical Twilight
Moon
Length of Visible Light
Length of Day
Tomorrow will be .
, % of the Moon is Illuminated

Today's Extremes

State Highs State Lows

Community

WunderPhotos

Upload Photos

1,962,540 photos uploaded!

WunderBlog® & News

Nearby

Air Quality

  Air Quality AQ Index Pollutant
Not available.

Snow Depth

Station Depth Elevation

Earthquake Activity

City Distance Mag. Time & Date
Minimum magnitude displayed is 2.5.

Coastal Water Temperatures

Place Temperature

Stations

Nearby Weather Stations

Station Location Temp. Windchill Dew Point Humidity Wind Precip. Elev Updated Type
                   

Watches & Warnings

Flood Warning
Issued: 9:28 PM PST Feb. 25, 2017 – National Weather Service

The Flood Warning continues for
the Humboldt River at Battle Mountain.
* Until Thursday morning.
* At 8:15 PM Saturday the stage was 10.7 feet.
* Flood stage is 9.5 feet.
* Moderate flooding is occurring and minor flooding is forecast.
* Forecast... the river will continue to fall to below flood stage by
   around Thursday.
* Impact... at 10.5 feet... moderate lowland flooding throughout reach,
with a number of rural roads impassable. No homes or basements
flooded. Livestock stranding and miring begins to be a problem.
3400 cfs, about a 5 year flood, 20 percent chance any year.


Lat... Lon 4074 11638 4055 11649 4060 11691 4076 11710 4093 11704